Weather History for Minden, LA

Change the Weather History Date:

Monday, October 7, 2013

  Actual Average (KBAD) Record (KBAD)
Temperature  
Mean Temperature 62 °F -  
Max Temperature 77 °F 75 °F 91 °F (2007)
Min Temperature 48 °F 55 °F 45 °F (2010)
Degree Days  
Heating Degree Days 2    
Growing Degree Days 12 (Base 50)    
Moisture  
Dew Point 49 °F    
Average Humidity 67    
Maximum Humidity 94    
Minimum Humidity 28    
Precipitation  
Precipitation 0.00 in - - ()
Sea Level Pressure  
Sea Level Pressure 30.08 in    
Wind  
Wind Speed 2 mph (NNW)    
Max Wind Speed 9 mph    
Max Gust Speed -    
Visibility 10 miles    
Events      
Averages and records for this station are not official NWS values.
T = Trace of Precipitation, MM = Missing Value Source: NWS Daily Summary

Daily Weather History Graph

Daily Weather History Graph

Search for Another Location

Airport:

Trip Planner

Search our weather history database for the weather conditions in past years. The results will help you decide how hot, cold, wet, or windy it might be!

Date:

Astronomy

Oct. 07, 2013 Rise Set
Actual Time 7:11 AM CDT 6:49 PM CDT
Civil Twilight 6:46 AM CDT 7:14 PM CDT
Nautical Twilight 6:18 AM CDT 7:42 PM CDT
Astronomical Twilight 5:49 AM CDT 8:11 PM CDT
Moon 9:52 AM CDT (10/7) 8:46 PM CDT (10/7)
Length of Visible Light 12h 27m
Length of Day
11h 38m
Waxing Crescent, 9% of the Moon is Illuminated
Oct 7
Waxing Crescent
Oct 11
First Quarter
Oct 18
Full
Oct 26
Last Quarter
Nov 3
New

Hourly Weather History & Observations

Time (CDT) Temp. Dew Point Humidity Pressure Visibility Wind Dir Wind Speed Gust Speed Precip Events Conditions
12:15 AM 54.0 °F 50.9 °F 89% 30.05 in 10.0 mi Calm Calm - N/A   Clear
12:35 AM 53.4 °F 50.4 °F 89% 30.05 in 10.0 mi Calm Calm - N/A   Clear
12:55 AM 53.4 °F 50.5 °F 90% 30.04 in 10.0 mi Calm Calm - N/A   Clear
1:15 AM 53.1 °F 50.2 °F 90% 30.05 in 10.0 mi Calm Calm - N/A   Clear
1:35 AM 52.7 °F 50.2 °F 91% 30.05 in 10.0 mi Calm Calm - N/A   Clear
1:55 AM 52.9 °F 50.4 °F 91% 30.05 in 10.0 mi Calm Calm - N/A   Clear
2:15 AM 52.7 °F 50.0 °F 91% 30.06 in 10.0 mi Calm Calm - N/A   Clear
2:55 AM 52.2 °F 49.6 °F 91% 30.06 in 10.0 mi Calm Calm - N/A   Clear
3:15 AM 52.0 °F 49.5 °F 91% 30.05 in 10.0 mi Calm Calm - N/A   Clear
3:35 AM 51.8 °F 49.5 °F 92% 30.05 in 10.0 mi Calm Calm - N/A   Clear
3:55 AM 51.3 °F 49.1 °F 92% 30.05 in 10.0 mi Calm Calm - N/A   Clear
4:15 AM 50.9 °F 48.6 °F 92% 30.06 in 10.0 mi Calm Calm - N/A   Clear
4:35 AM 50.9 °F 48.4 °F 91% 30.06 in 10.0 mi Calm Calm - N/A   Clear
4:55 AM 50.9 °F 48.6 °F 92% 30.07 in 10.0 mi Calm Calm - N/A   Clear
5:15 AM 50.5 °F 48.4 °F 92% 30.07 in 10.0 mi Calm Calm - N/A   Clear
5:35 AM 50.2 °F 48.2 °F 93% 30.07 in 10.0 mi Calm Calm - N/A   Clear
5:55 AM 50.0 °F 48.2 °F 94% 30.07 in 10.0 mi Calm Calm - N/A   Clear
6:15 AM 50.0 °F 47.8 °F 92% 30.07 in 10.0 mi Calm Calm - N/A   Clear
6:35 AM 49.8 °F 47.8 °F 93% 30.08 in 10.0 mi Calm Calm - N/A   Clear
6:55 AM 49.3 °F 47.5 °F 94% 30.08 in 10.0 mi Calm Calm - N/A   Clear
7:15 AM 48.7 °F 46.9 °F 93% 30.08 in 10.0 mi Calm Calm - N/A   Clear
7:35 AM 49.5 °F 47.5 °F 93% 30.09 in 10.0 mi Calm Calm - N/A   Clear
7:55 AM 50.9 °F 49.1 °F 94% 30.09 in 10.0 mi Calm Calm - N/A   Clear
8:15 AM 52.9 °F 50.4 °F 91% 30.10 in 10.0 mi Calm Calm - N/A   Clear
8:35 AM 55.4 °F 52.0 °F 88% 30.11 in 10.0 mi Calm Calm - N/A   Clear
8:55 AM 57.7 °F 52.0 °F 81% 30.11 in 10.0 mi NNW 3.5 mph - N/A   Clear
9:15 AM 60.4 °F 50.7 °F 70% 30.12 in 10.0 mi NNW 5.8 mph - N/A   Clear
9:35 AM 62.2 °F 50.4 °F 65% 30.12 in 10.0 mi NNW 6.9 mph - N/A   Clear
9:55 AM 64.0 °F 51.1 °F 63% 30.12 in 10.0 mi NNW 4.6 mph - N/A   Clear
10:15 AM 66.0 °F 50.7 °F 58% 30.12 in 10.0 mi NW 4.6 mph - N/A   Clear
10:35 AM 67.8 °F 48.0 °F 49% 30.12 in 10.0 mi North 5.8 mph - N/A   Clear
10:55 AM 69.3 °F 47.5 °F 46% 30.12 in 10.0 mi North 4.6 mph - N/A   Clear
11:15 AM 71.1 °F 48.0 °F 44% 30.12 in 10.0 mi NNW 3.5 mph - N/A   Clear
11:35 AM 72.0 °F 47.8 °F 42% 30.12 in 10.0 mi NNW 4.6 mph - N/A   Clear
11:55 AM 72.3 °F 43.9 °F 36% 30.12 in 10.0 mi NW 4.6 mph - N/A   Clear
12:15 PM 73.8 °F 43.9 °F 34% 30.12 in 10.0 mi NNW 4.6 mph - N/A   Clear
12:35 PM 73.8 °F 43.2 °F 33% 30.11 in 10.0 mi WNW 5.8 mph - N/A   Clear
12:55 PM 74.3 °F 43.3 °F 33% 30.10 in 10.0 mi West 3.5 mph - N/A   Clear
1:15 PM 75.2 °F 41.4 °F 30% 30.09 in 10.0 mi WNW 6.9 mph - N/A   Clear
1:35 PM 75.6 °F 43.3 °F 32% 30.08 in 10.0 mi NNW 4.6 mph - N/A   Clear
1:55 PM 76.3 °F 42.6 °F 30% 30.08 in 10.0 mi NW 4.6 mph - N/A   Clear
2:15 PM 76.5 °F 42.1 °F 29% 30.07 in 10.0 mi NNW 6.9 mph - N/A   Clear
2:35 PM 76.8 °F 43.5 °F 30% 30.07 in 10.0 mi NNW 6.9 mph - N/A   Clear
2:55 PM 76.8 °F 42.1 °F 29% 30.06 in 10.0 mi North 8.1 mph - N/A   Clear
3:15 PM 77.2 °F 42.1 °F 29% 30.06 in 10.0 mi NW 5.8 mph - N/A   Clear
3:35 PM 77.4 °F 41.9 °F 28% 30.06 in 10.0 mi NNW 6.9 mph - N/A   Clear
3:55 PM 77.7 °F 43.3 °F 29% 30.05 in 10.0 mi North 5.8 mph - N/A   Clear
4:15 PM 77.2 °F 43.3 °F 30% 30.05 in 10.0 mi North 6.9 mph - N/A   Clear
4:35 PM 77.4 °F 44.2 °F 31% 30.04 in 10.0 mi NNW 5.8 mph - N/A   Clear
4:55 PM 77.2 °F 44.1 °F 31% 30.04 in 10.0 mi NNW 6.9 mph - N/A   Clear
5:15 PM 76.1 °F 44.4 °F 32% 30.04 in 10.0 mi North 9.2 mph - N/A   Clear
5:35 PM 75.6 °F 45.0 °F 34% 30.04 in 10.0 mi North 5.8 mph - N/A   Clear
5:55 PM 74.7 °F 46.2 °F 36% 30.05 in 10.0 mi North 5.8 mph - N/A   Clear
6:15 PM 73.0 °F 49.3 °F 43% 30.05 in 10.0 mi North 3.5 mph - N/A   Clear
6:35 PM 70.5 °F 51.1 °F 50% 30.05 in 10.0 mi Calm Calm - N/A   Clear
6:55 PM 67.5 °F 52.2 °F 58% 30.06 in 10.0 mi Calm Calm - N/A   Clear
7:15 PM 64.6 °F 54.0 °F 68% 30.06 in 10.0 mi Calm Calm - N/A   Clear
7:35 PM 63.5 °F 53.6 °F 70% 30.06 in 10.0 mi Calm Calm - N/A   Clear
7:55 PM 61.3 °F 55.2 °F 80% 30.07 in 10.0 mi Calm Calm - N/A   Clear
8:15 PM 60.8 °F 54.7 °F 80% 30.07 in 10.0 mi Calm Calm - N/A   Clear
8:35 PM 59.5 °F 54.1 °F 82% 30.08 in 10.0 mi Calm Calm - N/A   Clear
8:55 PM 59.2 °F 53.8 °F 82% 30.08 in 10.0 mi Calm Calm - N/A   Clear
9:15 PM 59.2 °F 52.9 °F 80% 30.09 in 10.0 mi Calm Calm - N/A   Clear
9:35 PM 58.1 °F 53.4 °F 84% 30.09 in 10.0 mi Calm Calm - N/A   Clear
9:55 PM 57.2 °F 53.2 °F 87% 30.10 in 10.0 mi Calm Calm - N/A   Clear
10:15 PM 57.2 °F 53.1 °F 86% 30.10 in 10.0 mi Calm Calm - N/A   Clear
10:35 PM 57.0 °F 52.9 °F 86% 30.10 in 10.0 mi Calm Calm - N/A   Clear
10:55 PM 57.4 °F 52.7 °F 84% 30.10 in 10.0 mi Calm Calm - N/A   Clear
11:15 PM 55.8 °F 52.2 °F 88% 30.10 in 10.0 mi Calm Calm - N/A   Clear
11:35 PM 55.9 °F 52.2 °F 87% 30.10 in 10.0 mi Calm Calm - N/A   Clear
11:55 PM 56.1 °F 52.2 °F 87% 30.10 in 10.0 mi Calm Calm - N/A   Clear